Time;durP1;ratioP1;P1;durP2;ratioP2;P2;SDS_P1;SDS_P2;PMS_P1;PMS_P2;Temp;Humidity;BMP_temperature;BMP_pressure;BME280_temperature;BME280_humidity;BME280_pressure;Samples;Min_cycle;Max_cycle;Signal;HPM_P1;HPM_P2
2024/04/05 00:00:40;;;;;;;7.37;1.80;;;10.50;99.90;;;;;;5055964;28;20067;-89
2024/04/05 00:03:07;;;;;;;5.70;2.03;;;10.50;99.90;;;;;;5055552;28;20165;-90
2024/04/05 00:05:33;;;;;;;5.37;2.17;;;10.60;99.90;;;;;;5055707;28;20028;-88
2024/04/05 00:07:59;;;;;;;7.20;1.80;;;10.50;99.90;;;;;;5055399;28;20392;-89
2024/04/05 00:10:24;;;;;;;5.67;1.70;;;10.50;99.90;;;;;;5055599;28;20040;-90
2024/04/05 00:12:50;;;;;;;6.30;2.17;;;10.50;99.90;;;;;;5054844;28;20056;-89
2024/04/05 00:15:15;;;;;;;5.80;2.43;;;10.50;99.90;;;;;;5054709;28;20021;-90
2024/04/05 00:17:41;;;;;;;7.70;2.63;;;10.50;99.90;;;;;;5056364;28;20044;-89
2024/04/05 00:20:07;;;;;;;5.47;2.17;;;10.50;99.90;;;;;;5054058;28;20036;-90
2024/04/05 00:22:32;;;;;;;6.50;2.37;;;10.50;99.90;;;;;;5054670;28;20094;-89
2024/04/05 00:24:58;;;;;;;6.40;2.03;;;10.50;99.90;;;;;;5055952;28;20770;-89
2024/04/05 00:27:23;;;;;;;6.37;1.90;;;10.50;99.90;;;;;;5055924;28;20090;-89
2024/04/05 00:29:49;;;;;;;5.10;2.00;;;10.40;99.90;;;;;;5055458;28;20118;-90
2024/04/05 00:32:15;;;;;;;5.13;2.33;;;10.40;99.90;;;;;;5055594;28;20032;-90
2024/04/05 00:34:41;;;;;;;5.73;2.37;;;10.40;99.90;;;;;;5054624;28;20056;-89
2024/04/05 00:37:07;;;;;;;7.53;2.20;;;10.40;99.90;;;;;;5054387;28;20788;-90
2024/04/05 00:39:32;;;;;;;4.33;2.07;;;10.30;99.90;;;;;;5055366;28;20040;-90
2024/04/05 00:41:58;;;;;;;4.27;2.20;;;10.40;99.90;;;;;;5055335;28;20536;-90
2024/04/05 00:44:24;;;;;;;6.17;2.23;;;10.30;99.90;;;;;;5056231;28;20017;-90
2024/04/05 00:46:50;;;;;;;5.20;2.27;;;10.30;99.90;;;;;;5055279;28;20035;-88
2024/04/05 00:49:16;;;;;;;5.00;2.03;;;10.30;99.90;;;;;;5054002;28;20063;-89
2024/04/05 00:51:41;;;;;;;7.47;2.50;;;10.30;99.90;;;;;;5055595;28;21380;-89
2024/04/05 00:54:07;;;;;;;6.30;2.40;;;10.30;99.90;;;;;;5054583;28;20028;-90
2024/04/05 00:56:33;;;;;;;4.60;2.10;;;10.30;99.90;;;;;;5054346;28;20397;-90
2024/04/05 00:58:59;;;;;;;5.70;2.10;;;10.30;99.90;;;;;;5053864;28;20024;-90
2024/04/05 01:01:26;;;;;;;6.40;2.30;;;10.30;99.90;;;;;;5055379;28;20040;-90
2024/04/05 01:03:51;;;;;;;7.13;2.23;;;10.30;99.90;;;;;;5054756;28;20059;-91
2024/04/05 01:06:17;;;;;;;5.10;2.10;;;10.30;99.90;;;;;;5054827;28;20044;-91
2024/04/05 01:08:43;;;;;;;4.53;2.03;;;10.30;99.90;;;;;;5054958;28;20033;-89
2024/04/05 01:11:09;;;;;;;4.23;2.47;;;10.30;99.90;;;;;;5054806;28;21314;-89
2024/04/05 01:13:34;;;;;;;6.23;2.00;;;10.30;99.90;;;;;;5054880;28;20046;-90
2024/04/05 01:16:04;;;;;;;5.27;2.70;;;10.30;99.90;;;;;;5054906;28;20527;-90
2024/04/05 01:18:30;;;;;;;6.37;2.30;;;10.30;99.90;;;;;;5054918;28;20154;-89
2024/04/05 01:20:57;;;;;;;5.40;2.30;;;10.30;99.90;;;;;;5056023;28;20054;-89
2024/04/05 01:23:27;;;;;;;6.50;2.30;;;10.20;99.90;;;;;;5054314;28;20457;-89
2024/04/05 01:25:53;;;;;;;5.47;3.03;;;10.30;99.90;;;;;;5054742;28;20065;-90
2024/04/05 01:28:18;;;;;;;6.40;2.60;;;10.20;99.90;;;;;;5053727;28;20111;-90
2024/04/05 01:30:44;;;;;;;3.87;2.37;;;10.20;99.90;;;;;;5053945;28;20104;-90
2024/04/05 01:33:10;;;;;;;5.77;2.20;;;10.20;99.90;;;;;;5054403;28;20064;-90
2024/04/05 01:35:38;;;;;;;3.73;2.10;;;10.20;99.90;;;;;;5053623;28;20488;-90
2024/04/05 01:38:04;;;;;;;4.47;2.30;;;10.20;99.90;;;;;;5053724;28;20033;-89
2024/04/05 01:40:30;;;;;;;9.83;3.00;;;10.20;99.90;;;;;;5054638;28;20044;-90
2024/04/05 01:42:55;;;;;;;8.80;2.20;;;10.30;99.90;;;;;;5054083;28;20074;-89
2024/04/05 01:45:21;;;;;;;6.63;2.40;;;10.20;99.90;;;;;;5053644;28;20032;-90
2024/04/05 01:47:47;;;;;;;4.50;2.27;;;10.20;99.90;;;;;;5054757;28;20063;-89
2024/04/05 01:50:14;;;;;;;7.70;2.50;;;10.20;99.90;;;;;;5052659;28;20033;-90
2024/04/05 01:52:40;;;;;;;6.10;2.20;;;10.20;99.90;;;;;;5054426;28;20024;-89
2024/04/05 01:55:06;;;;;;;3.77;2.43;;;10.20;99.90;;;;;;5054685;28;20038;-90
2024/04/05 01:57:38;;;;;;;8.47;2.20;;;10.20;99.90;;;;;;5055467;28;20392;-90
2024/04/05 02:00:05;;;;;;;7.80;2.53;;;10.20;99.90;;;;;;5054296;28;20067;-90
2024/04/05 02:02:31;;;;;;;6.50;2.27;;;10.20;99.90;;;;;;5052688;28;20032;-90
2024/04/05 02:04:57;;;;;;;4.27;2.13;;;10.20;99.90;;;;;;5056235;28;20024;-90
2024/04/05 02:07:23;;;;;;;5.20;2.13;;;10.20;99.90;;;;;;5056721;28;20024;-90
2024/04/05 02:09:50;;;;;;;5.33;2.23;;;10.20;99.90;;;;;;5057830;28;20429;-90
2024/04/05 02:12:16;;;;;;;5.07;2.30;;;10.20;99.90;;;;;;5056454;28;20092;-90
2024/04/05 02:14:42;;;;;;;5.93;2.93;;;10.20;99.90;;;;;;5053588;28;20028;-89
2024/04/05 02:17:07;;;;;;;5.00;1.73;;;10.20;99.90;;;;;;5053234;28;20032;-90
2024/04/05 02:19:33;;;;;;;4.60;2.00;;;10.20;99.90;;;;;;5052715;28;20122;-89
2024/04/05 02:21:59;;;;;;;4.10;2.07;;;10.20;99.90;;;;;;5054055;28;20511;-89
2024/04/05 02:24:24;;;;;;;6.07;2.30;;;10.20;99.90;;;;;;5054178;28;20313;-89
2024/04/05 02:26:50;;;;;;;4.47;2.40;;;10.20;99.90;;;;;;5051885;28;20032;-89
2024/04/05 02:29:16;;;;;;;4.63;2.30;;;10.20;99.90;;;;;;5053486;28;20388;-90
2024/04/05 02:31:42;;;;;;;5.07;2.23;;;10.20;99.90;;;;;;5052935;28;20059;-90
2024/04/05 02:34:08;;;;;;;3.87;2.00;;;10.20;99.90;;;;;;5053575;28;20032;-90
2024/04/05 02:36:33;;;;;;;5.10;2.10;;;10.20;99.90;;;;;;5052315;28;20028;-89
2024/04/05 02:38:59;;;;;;;4.87;2.33;;;10.20;99.90;;;;;;5053784;28;20051;-89
2024/04/05 02:41:24;;;;;;;6.20;2.00;;;10.20;99.90;;;;;;5053762;28;20024;-89
2024/04/05 02:43:50;;;;;;;3.53;2.07;;;10.20;99.90;;;;;;5053520;28;20035;-89
2024/04/05 02:46:16;;;;;;;3.60;1.93;;;10.10;99.90;;;;;;5052273;28;20032;-89
2024/04/05 02:48:41;;;;;;;5.37;2.03;;;10.10;99.90;;;;;;5053115;28;20381;-89
2024/04/05 02:51:07;;;;;;;6.10;2.20;;;10.10;99.90;;;;;;5053511;28;20151;-89
2024/04/05 02:53:33;;;;;;;5.77;2.10;;;10.10;99.90;;;;;;5053846;28;20037;-88
2024/04/05 02:55:58;;;;;;;5.67;2.50;;;10.10;99.90;;;;;;5051781;28;20032;-89
2024/04/05 02:58:24;;;;;;;5.50;2.20;;;10.10;99.90;;;;;;5052824;28;20032;-89
2024/04/05 03:00:54;;;;;;;5.83;2.80;;;10.10;99.90;;;;;;5052958;28;20043;-88
2024/04/05 03:03:20;;;;;;;5.07;2.20;;;10.10;99.90;;;;;;5055177;28;20040;-89
2024/04/05 03:05:45;;;;;;;5.83;2.20;;;10.10;99.90;;;;;;5052180;28;20146;-90
2024/04/05 03:08:11;;;;;;;5.00;2.20;;;10.10;99.90;;;;;;5050632;28;20029;-89
2024/04/05 03:10:37;;;;;;;11.83;2.57;;;10.10;99.90;;;;;;5053182;28;20116;-88
2024/04/05 03:13:02;;;;;;;10.73;2.87;;;10.10;99.90;;;;;;5053146;28;20400;-88
2024/04/05 03:15:28;;;;;;;6.10;2.07;;;10.00;99.90;;;;;;5052438;28;20531;-89
2024/04/05 03:17:53;;;;;;;5.20;1.87;;;10.00;99.90;;;;;;5052486;28;20028;-90
2024/04/05 03:20:19;;;;;;;6.87;2.37;;;10.00;99.90;;;;;;5053178;28;20431;-90
2024/04/05 03:22:44;;;;;;;6.47;2.10;;;10.00;99.90;;;;;;5053116;28;21548;-88
2024/04/05 03:25:10;;;;;;;5.40;2.40;;;10.00;99.90;;;;;;5052674;28;20025;-89
2024/04/05 03:27:36;;;;;;;5.77;2.50;;;10.00;99.90;;;;;;5052662;28;20024;-90
2024/04/05 03:30:03;;;;;;;4.17;2.03;;;10.00;99.90;;;;;;5053328;28;20106;-89
2024/04/05 03:32:30;;;;;;;5.07;2.27;;;10.00;99.90;;;;;;5053074;28;20036;-89
2024/04/05 03:34:56;;;;;;;5.40;2.30;;;10.00;99.90;;;;;;5053214;28;20023;-89
2024/04/05 03:37:25;;;;;;;5.50;1.90;;;10.00;99.90;;;;;;5052962;28;20025;-89
2024/04/05 03:39:52;;;;;;;8.30;2.50;;;10.00;99.90;;;;;;5053389;28;20029;-89
2024/04/05 03:42:21;;;;;;;7.77;4.13;;;10.00;99.90;;;;;;5052678;28;20116;-89
2024/04/05 03:44:49;;;;;;;8.33;2.30;;;10.00;99.90;;;;;;5053476;28;20036;-89
2024/04/05 03:47:15;;;;;;;4.93;2.30;;;10.00;99.90;;;;;;5052435;28;20039;-89
2024/04/05 03:49:41;;;;;;;4.50;1.90;;;10.00;99.90;;;;;;5051817;28;20024;-88
2024/04/05 03:52:07;;;;;;;5.00;2.23;;;10.00;99.90;;;;;;5052186;28;20140;-89
2024/04/05 03:54:33;;;;;;;8.63;5.27;;;9.90;99.90;;;;;;5053329;28;20528;-89
2024/04/05 03:56:59;;;;;;;12.43;8.17;;;10.00;99.90;;;;;;5051904;28;20025;-89
2024/04/05 03:59:26;;;;;;;6.53;3.50;;;9.90;99.90;;;;;;5052131;28;20024;-88
2024/04/05 04:01:52;;;;;;;7.83;3.27;;;9.90;99.90;;;;;;5052590;28;20104;-89
2024/04/05 04:04:17;;;;;;;7.80;2.77;;;9.90;99.90;;;;;;5052397;28;20041;-89
2024/04/05 04:06:44;;;;;;;5.77;2.17;;;9.90;99.90;;;;;;5050765;28;20111;-89
2024/04/05 04:09:11;;;;;;;5.03;2.10;;;9.90;99.90;;;;;;5055104;28;20059;-88
2024/04/05 04:11:37;;;;;;;5.07;2.37;;;9.90;99.90;;;;;;5056466;28;20044;-89
2024/04/05 04:14:02;;;;;;;5.20;2.40;;;9.90;99.90;;;;;;5056740;28;20064;-89
2024/04/05 04:16:28;;;;;;;4.57;2.20;;;9.90;99.90;;;;;;5054258;28;20107;-89
2024/04/05 04:18:53;;;;;;;7.07;2.60;;;9.90;99.90;;;;;;5057063;28;20029;-90
2024/04/05 04:21:19;;;;;;;8.70;2.40;;;9.90;99.90;;;;;;5056527;28;20143;-89
2024/04/05 04:23:50;;;;;;;4.27;2.50;;;9.90;99.90;;;;;;5057512;28;20499;-89
2024/04/05 04:26:16;;;;;;;5.00;2.50;;;9.90;99.90;;;;;;5056720;28;20033;-89
2024/04/05 04:28:42;;;;;;;8.40;3.00;;;9.90;99.90;;;;;;5054143;28;20036;-89
2024/04/05 04:31:16;;;;;;;6.53;2.80;;;9.90;99.90;;;;;;5056044;28;20029;-89
2024/04/05 04:33:46;;;;;;;4.65;1.95;;;9.80;99.90;;;;;;5054682;28;20040;-91
2024/04/05 04:36:12;;;;;;;10.30;3.07;;;9.80;99.90;;;;;;5055263;28;20055;-91
2024/04/05 04:38:38;;;;;;;6.33;3.10;;;9.90;99.90;;;;;;5054066;28;20036;-90
2024/04/05 04:41:04;;;;;;;7.57;3.40;;;9.80;99.90;;;;;;5054116;28;20107;-89
2024/04/05 04:43:30;;;;;;;5.53;2.37;;;9.80;99.90;;;;;;5055023;28;20021;-90
2024/04/05 04:45:55;;;;;;;3.63;2.37;;;9.90;99.90;;;;;;5054896;28;20041;-90
2024/04/05 04:48:21;;;;;;;5.40;2.50;;;9.90;99.90;;;;;;5055536;28;20025;-89
2024/04/05 04:50:46;;;;;;;5.90;2.80;;;9.90;99.90;;;;;;5054486;28;20017;-91
2024/04/05 04:53:12;;;;;;;4.27;2.23;;;9.80;99.90;;;;;;5053871;28;20808;-90
2024/04/05 04:55:41;;;;;;;4.93;2.10;;;9.90;99.90;;;;;;5055124;28;20413;-89
2024/04/05 04:58:06;;;;;;;6.03;2.40;;;9.90;99.90;;;;;;5055381;28;20079;-87
2024/04/05 05:00:32;;;;;;;5.33;1.90;;;9.90;99.90;;;;;;5053246;28;20040;-87
2024/04/05 05:02:58;;;;;;;4.67;2.03;;;9.90;99.90;;;;;;5054109;28;20052;-87
2024/04/05 05:05:23;;;;;;;5.00;2.00;;;9.90;99.90;;;;;;5053027;28;20043;-87
2024/04/05 05:07:49;;;;;;;5.53;2.23;;;10.00;99.90;;;;;;5051154;28;20068;-88
2024/04/05 05:10:14;;;;;;;7.47;2.03;;;10.00;99.90;;;;;;5052420;28;20042;-74
2024/04/05 05:12:43;;;;;;;6.23;2.50;;;10.00;99.90;;;;;;5053847;28;20129;-89
2024/04/05 05:15:09;;;;;;;3.83;2.17;;;10.10;99.90;;;;;;5051317;28;20033;-88
2024/04/05 05:17:35;;;;;;;7.37;2.00;;;10.10;99.90;;;;;;5053601;28;20064;-87
2024/04/05 05:20:00;;;;;;;4.63;2.03;;;10.10;99.90;;;;;;5053911;28;20025;-86
2024/04/05 05:22:26;;;;;;;5.63;1.90;;;10.10;99.90;;;;;;5052835;28;20058;-87
2024/04/05 05:24:51;;;;;;;3.90;1.97;;;10.20;99.90;;;;;;5052072;28;20401;-87
2024/04/05 05:27:17;;;;;;;5.57;2.00;;;10.20;99.90;;;;;;5051249;28;20477;-87
2024/04/05 05:29:43;;;;;;;4.27;1.83;;;10.30;99.90;;;;;;5054287;28;20670;-88
2024/04/05 05:32:11;;;;;;;4.00;1.83;;;10.30;99.90;;;;;;5056576;28;20671;-87
2024/04/05 05:34:38;;;;;;;5.47;1.87;;;10.30;99.90;;;;;;5056814;28;20035;-87
2024/04/05 05:37:03;;;;;;;4.13;1.87;;;10.40;99.90;;;;;;5057563;28;20028;-87
2024/04/05 05:39:29;;;;;;;5.77;1.80;;;10.40;99.90;;;;;;5055539;28;20062;-87
2024/04/05 05:41:54;;;;;;;2.97;1.77;;;10.40;99.90;;;;;;5051563;28;20338;-86
2024/04/05 05:44:20;;;;;;;5.03;1.77;;;10.40;99.90;;;;;;5053016;28;20063;-87
2024/04/05 05:46:45;;;;;;;4.20;2.20;;;10.50;99.90;;;;;;5052576;28;20048;-87
2024/04/05 05:49:12;;;;;;;3.67;1.87;;;10.50;99.90;;;;;;5052087;28;20028;-86
2024/04/05 05:51:38;;;;;;;4.50;1.70;;;10.50;99.90;;;;;;5054084;28;20029;-86
2024/04/05 05:54:03;;;;;;;5.53;1.60;;;10.50;99.90;;;;;;5052738;28;20944;-88
2024/04/05 05:56:29;;;;;;;7.07;1.80;;;10.60;99.90;;;;;;5053159;28;20112;-88
2024/04/05 05:58:54;;;;;;;3.47;1.33;;;10.70;99.90;;;;;;5051629;28;20090;-86
2024/04/05 06:01:20;;;;;;;3.43;1.50;;;10.70;99.90;;;;;;5053530;28;20205;-87
2024/04/05 06:03:45;;;;;;;4.00;1.30;;;10.80;99.90;;;;;;5053210;28;20544;-87
2024/04/05 06:06:11;;;;;;;4.53;1.50;;;10.90;99.90;;;;;;5052117;28;20541;-88
2024/04/05 06:08:39;;;;;;;3.20;1.50;;;10.90;99.90;;;;;;5052848;28;20370;-87
2024/04/05 06:11:04;;;;;;;3.27;1.50;;;10.90;99.90;;;;;;5053221;28;20036;-87
2024/04/05 06:13:30;;;;;;;4.70;1.40;;;11.00;99.90;;;;;;5053030;28;20072;-87
2024/04/05 06:15:57;;;;;;;4.43;1.60;;;11.10;99.90;;;;;;5051718;28;20461;-88
2024/04/05 06:18:26;;;;;;;2.53;1.40;;;11.10;99.90;;;;;;5052861;28;20447;-87
2024/04/05 06:20:55;;;;;;;4.57;1.73;;;11.10;99.90;;;;;;5050870;28;20052;-87
2024/04/05 06:23:22;;;;;;;5.23;1.80;;;11.10;99.90;;;;;;5053837;28;20472;-88
2024/04/05 06:25:56;;;;;;;4.73;1.67;;;11.20;99.90;;;;;;5052038;28;20032;-88
2024/04/05 06:28:22;;;;;;;3.60;1.63;;;11.20;99.90;;;;;;5050661;28;20036;-88
2024/04/05 06:30:48;;;;;;;4.33;1.63;;;11.30;99.90;;;;;;5053045;28;20055;-88
2024/04/05 06:33:14;;;;;;;2.83;1.40;;;11.30;99.90;;;;;;5051052;28;20033;-88
2024/04/05 06:35:40;;;;;;;7.90;2.10;;;11.30;99.90;;;;;;5051995;28;20174;-88
2024/04/05 06:38:07;;;;;;;2.40;1.45;;;11.40;99.90;;;;;;5052677;28;20199;-87
2024/04/05 06:40:33;;;;;;;4.75;2.25;;;11.40;99.90;;;;;;5050844;28;20116;-87
2024/04/05 06:42:58;;;;;;;6.03;1.50;;;11.50;99.90;;;;;;5052722;28;20895;-88
2024/04/05 06:45:24;;;;;;;3.03;1.57;;;11.60;99.90;;;;;;5049907;28;20025;-88
2024/04/05 06:47:50;;;;;;;2.78;1.33;;;11.70;99.90;;;;;;5050276;28;21616;-88
2024/04/05 06:50:15;;;;;;;3.25;1.65;;;11.80;99.90;;;;;;5051711;28;20028;-88
2024/04/05 06:52:41;;;;;;;4.32;2.00;;;11.80;99.90;;;;;;5052878;28;20548;-87
2024/04/05 06:55:08;;;;;;;4.85;1.73;;;12.00;99.90;;;;;;5052180;28;21327;-87
2024/04/05 06:57:34;;;;;;;6.97;1.92;;;12.10;99.90;;;;;;5052062;28;20056;-88
2024/04/05 07:00:01;;;;;;;3.97;1.48;;;12.10;99.90;;;;;;5051889;28;20044;-88
2024/04/05 07:02:27;;;;;;;3.42;1.33;;;12.20;99.90;;;;;;5052021;28;20017;-87
2024/04/05 07:04:52;;;;;;;4.10;1.55;;;12.30;99.90;;;;;;5051310;28;20039;-88
2024/04/05 07:07:18;;;;;;;3.42;1.25;;;12.40;99.90;;;;;;5051048;28;20028;-88
2024/04/05 07:09:44;;;;;;;3.53;1.25;;;12.60;99.90;;;;;;5051651;28;20027;-88
2024/04/05 07:12:11;;;;;;;5.53;2.00;;;12.60;99.90;;;;;;5050649;28;20119;-88
2024/04/05 07:14:37;;;;;;;3.45;1.58;;;12.70;99.90;;;;;;5050465;28;20025;-88
2024/04/05 07:17:03;;;;;;;3.15;1.80;;;12.70;99.90;;;;;;5051771;28;21102;-88
2024/04/05 07:19:29;;;;;;;4.75;1.27;;;12.70;99.90;;;;;;5049919;28;20738;-87
2024/04/05 07:21:55;;;;;;;4.00;1.50;;;12.70;99.90;;;;;;5050497;28;20037;-88
2024/04/05 07:24:21;;;;;;;2.33;1.30;;;12.60;99.90;;;;;;5052170;28;20036;-88
2024/04/05 07:26:47;;;;;;;2.47;1.25;;;12.70;99.90;;;;;;5052058;28;20434;-89
2024/04/05 07:29:12;;;;;;;3.28;1.25;;;12.70;99.90;;;;;;5052134;28;20052;-89
2024/04/05 07:31:39;;;;;;;2.92;1.20;;;12.70;99.90;;;;;;5051685;28;21491;-89
2024/04/05 07:34:05;;;;;;;3.97;1.10;;;12.80;99.90;;;;;;5053483;28;20212;-88
2024/04/05 07:36:32;;;;;;;6.60;1.85;;;13.00;99.90;;;;;;5050795;28;20025;-87
2024/04/05 07:38:58;;;;;;;3.13;1.20;;;13.10;99.90;;;;;;5052339;28;20051;-89
2024/04/05 07:41:23;;;;;;;3.38;1.40;;;13.20;99.90;;;;;;5051323;28;20854;-88
2024/04/05 07:43:49;;;;;;;6.25;1.40;;;13.40;99.90;;;;;;5054901;28;20035;-88
2024/04/05 07:46:15;;;;;;;4.95;1.92;;;13.50;99.90;;;;;;5055475;28;20943;-88
2024/04/05 07:48:41;;;;;;;2.85;1.20;;;13.70;99.90;;;;;;5054744;28;20740;-89
2024/04/05 07:51:07;;;;;;;3.90;1.40;;;13.80;99.90;;;;;;5055531;28;20034;-87
2024/04/05 07:53:32;;;;;;;4.55;1.33;;;14.00;99.90;;;;;;5054462;28;20033;-89
2024/04/05 07:56:03;;;;;;;3.45;1.20;;;14.20;99.90;;;;;;5055456;28;20035;-88
2024/04/05 07:58:29;;;;;;;6.18;1.40;;;14.30;99.90;;;;;;5057549;28;20033;-88
2024/04/05 08:00:56;;;;;;;4.13;1.15;;;14.50;99.90;;;;;;5055157;28;20032;-92
2024/04/05 08:03:22;;;;;;;4.50;1.20;;;14.70;99.90;;;;;;5069225;28;20028;-88
2024/04/05 08:05:48;;;;;;;4.38;1.40;;;14.80;99.90;;;;;;5068424;28;20385;-88
2024/04/05 08:08:13;;;;;;;4.88;1.42;;;14.90;99.90;;;;;;5056567;28;20033;-88
2024/04/05 08:10:39;;;;;;;11.52;1.60;;;15.00;99.90;;;;;;5055055;28;20421;-88
2024/04/05 08:13:04;;;;;;;2.03;1.00;;;15.10;99.90;;;;;;5054495;28;21539;-89
2024/04/05 08:15:30;;;;;;;11.68;1.25;;;15.30;99.90;;;;;;5052287;28;20036;-88
2024/04/05 08:17:57;;;;;;;3.05;1.10;;;15.40;99.90;;;;;;5054937;28;20103;-88
2024/04/05 08:20:22;;;;;;;6.00;1.10;;;15.50;99.90;;;;;;5053985;28;20052;-88
2024/04/05 08:22:48;;;;;;;6.30;1.48;;;15.70;99.90;;;;;;5053840;28;20040;-88
2024/04/05 08:25:14;;;;;;;3.08;1.10;;;15.80;99.90;;;;;;5055526;28;20028;-89
2024/04/05 08:27:43;;;;;;;5.00;1.35;;;16.00;99.90;;;;;;5053626;28;20040;-88
2024/04/05 08:30:12;;;;;;;3.90;1.20;;;16.20;99.90;;;;;;5055639;28;20124;-88
2024/04/05 08:32:41;;;;;;;4.47;1.00;;;16.30;99.90;;;;;;5054144;28;20044;-89
2024/04/05 08:35:09;;;;;;;2.55;0.90;;;16.50;99.90;;;;;;5054673;28;20040;-89
2024/04/05 08:37:35;;;;;;;4.60;1.23;;;16.60;99.90;;;;;;5053670;28;20039;-88
2024/04/05 08:40:01;;;;;;;4.88;1.20;;;16.70;99.90;;;;;;5053358;28;21162;-88
2024/04/05 08:42:32;;;;;;;6.90;1.20;;;16.80;99.90;;;;;;5054298;28;20031;-88
2024/04/05 08:44:58;;;;;;;2.55;1.20;;;16.80;99.90;;;;;;5054146;28;20025;-88
2024/04/05 08:47:25;;;;;;;4.68;1.08;;;16.90;99.90;;;;;;5052905;28;20024;-88
2024/04/05 08:49:52;;;;;;;6.32;1.20;;;16.90;99.90;;;;;;5053150;28;20040;-88
2024/04/05 08:52:18;;;;;;;3.55;1.10;;;17.00;99.90;;;;;;5053824;28;20075;-88
2024/04/05 08:54:45;;;;;;;6.57;1.13;;;17.10;99.90;;;;;;5054757;28;20170;-88
2024/04/05 08:57:12;;;;;;;6.22;1.30;;;17.20;99.90;;;;;;5054113;28;20126;-88
2024/04/05 08:59:39;;;;;;;4.95;1.35;;;17.30;99.90;;;;;;5055048;28;20082;-89
2024/04/05 09:02:09;;;;;;;8.23;1.30;;;17.50;99.90;;;;;;5054917;28;20397;-88
2024/04/05 09:04:36;;;;;;;3.20;1.30;;;17.70;99.90;;;;;;5055471;28;20086;-89
2024/04/05 09:07:04;;;;;;;5.00;1.00;;;17.80;99.90;;;;;;5056228;28;20028;-89
2024/04/05 09:09:31;;;;;;;9.38;1.52;;;17.90;99.90;;;;;;5056739;28;20037;-89
2024/04/05 09:12:01;;;;;;;4.05;1.27;;;18.00;99.90;;;;;;5054950;28;20077;-76
2024/04/05 09:14:27;;;;;;;2.53;1.10;;;18.20;99.90;;;;;;5052523;28;20055;-76
2024/04/05 09:16:53;;;;;;;2.67;1.20;;;18.40;99.90;;;;;;5051072;28;20020;-76
2024/04/05 09:19:20;;;;;;;4.53;1.17;;;18.60;99.90;;;;;;5053477;28;21225;-77
2024/04/05 09:21:46;;;;;;;2.10;0.90;;;18.80;99.90;;;;;;5051632;28;20548;-77
2024/04/05 09:24:12;;;;;;;3.70;1.13;;;19.00;99.90;;;;;;5053478;28;20028;-77
2024/04/05 09:26:37;;;;;;;2.05;0.88;;;19.30;99.90;;;;;;5051923;28;20031;-76
2024/04/05 09:29:06;;;;;;;3.05;1.00;;;19.40;99.90;;;;;;5052682;28;20100;-77
2024/04/05 09:31:32;;;;;;;3.88;1.35;;;19.60;99.90;;;;;;5053323;28;20037;-77
2024/04/05 09:34:20;;;;;;;5.32;1.02;;;19.80;99.90;;;;;;5052276;28;20665;-77
2024/04/05 09:36:46;;;;;;;2.95;0.70;;;20.00;99.90;;;;;;5051632;28;20051;-75
2024/04/05 09:39:16;;;;;;;1.50;0.95;;;20.10;99.90;;;;;;5052496;28;20021;-77
2024/04/05 09:41:44;;;;;;;4.32;1.00;;;20.20;99.90;;;;;;5052460;28;20628;-76
2024/04/05 09:44:11;;;;;;;4.55;0.90;;;20.50;99.90;;;;;;5052941;28;20462;-76
2024/04/05 09:46:37;;;;;;;4.88;1.02;;;20.60;99.90;;;;;;5051964;28;20028;-76
2024/04/05 09:49:03;;;;;;;2.03;0.85;;;20.70;99.90;;;;;;5051708;28;20035;-75
2024/04/05 09:51:45;;;;;;;2.75;0.85;;;20.80;99.90;;;;;;5051727;28;20106;-76
2024/04/05 09:54:12;;;;;;;1.90;0.80;;;21.00;99.90;;;;;;5050827;28;20083;-76
2024/04/05 09:56:39;;;;;;;2.53;0.80;;;21.00;99.90;;;;;;5051179;28;20033;-76
2024/04/05 09:59:10;;;;;;;2.80;0.82;;;21.10;99.90;;;;;;5050850;28;20744;-74
2024/04/05 10:01:38;;;;;;;1.95;0.90;;;21.10;99.90;;;;;;5050323;28;20132;-77
2024/04/05 10:04:04;;;;;;;1.65;0.77;;;21.10;99.90;;;;;;5052740;28;20024;-74
2024/04/05 10:06:39;;;;;;;4.55;0.85;;;21.30;99.90;;;;;;5052285;28;20184;-75
2024/04/05 10:09:18;;;;;;;2.92;0.90;;;21.40;99.90;;;;;;5051382;28;20124;-75
2024/04/05 10:11:45;;;;;;;2.30;0.85;;;21.60;99.90;;;;;;5051664;28;20051;-75
2024/04/05 10:14:20;;;;;;;1.30;0.73;;;21.70;99.90;;;;;;5050269;28;20069;-74
2024/04/05 10:16:46;;;;;;;2.78;1.27;;;21.70;99.90;;;;;;5049414;28;20143;-75
2024/04/05 10:19:12;;;;;;;1.70;0.90;;;21.70;99.90;;;;;;5050383;28;20115;-74
2024/04/05 10:21:37;;;;;;;2.53;1.38;;;21.70;99.90;;;;;;5050005;28;21349;-75
2024/04/05 10:24:06;;;;;;;3.25;0.77;;;22.00;99.90;;;;;;5050869;28;20047;-75
2024/04/05 10:26:35;;;;;;;1.60;0.80;;;22.00;99.90;;;;;;5051942;28;20477;-76
2024/04/05 10:29:04;;;;;;;4.28;1.00;;;22.10;99.90;;;;;;5050469;28;20113;-75
2024/04/05 10:31:32;;;;;;;2.60;1.02;;;22.30;99.90;;;;;;5050632;28;20033;-75
2024/04/05 10:34:00;;;;;;;1.80;0.73;;;22.40;99.90;;;;;;5051303;28;20101;-75
2024/04/05 10:36:28;;;;;;;1.88;0.80;;;22.40;99.90;;;;;;5050150;28;20044;-74
2024/04/05 10:38:54;;;;;;;5.10;1.20;;;22.40;99.90;;;;;;5051190;28;20115;-75
2024/04/05 10:41:20;;;;;;;2.70;0.95;;;22.60;99.90;;;;;;5050652;28;20055;-75
2024/04/05 10:43:46;;;;;;;3.30;0.90;;;22.50;99.90;;;;;;5050977;28;20036;-72
2024/04/05 10:46:13;;;;;;;2.40;1.00;;;22.70;99.90;;;;;;5049356;28;20102;-75
2024/04/05 10:48:39;;;;;;;3.17;0.90;;;22.60;99.90;;;;;;5051139;28;20556;-75
2024/04/05 10:51:05;;;;;;;1.27;0.80;;;22.80;99.90;;;;;;5051675;28;20281;-75
2024/04/05 10:53:30;;;;;;;2.10;0.93;;;23.00;99.90;;;;;;5050924;28;20052;-74
2024/04/05 10:55:56;;;;;;;3.67;1.30;;;23.00;99.90;;;;;;5050372;28;20143;-74
2024/04/05 10:58:21;;;;;;;1.65;0.90;;;23.10;99.90;;;;;;5048946;28;20028;-75
2024/04/05 11:00:47;;;;;;;3.17;0.80;;;23.10;99.90;;;;;;5051177;28;20068;-74
2024/04/05 11:03:13;;;;;;;2.97;0.88;;;23.50;99.90;;;;;;5051168;28;20037;-74
2024/04/05 11:05:39;;;;;;;2.63;0.77;;;23.50;99.90;;;;;;5049504;28;20033;-75
2024/04/05 11:08:08;;;;;;;3.70;0.90;;;23.70;99.90;;;;;;5049751;28;20047;-75
2024/04/05 11:10:35;;;;;;;2.15;0.90;;;23.80;99.90;;;;;;5050240;28;20089;-75
2024/04/05 11:13:12;;;;;;;3.00;0.77;;;23.80;99.30;;;;;;5050790;28;20017;-75
2024/04/05 11:15:38;;;;;;;1.38;0.88;;;23.90;99.20;;;;;;5049842;28;20041;-75
2024/04/05 11:18:05;;;;;;;5.05;0.80;;;23.80;99.90;;;;;;5053137;28;20039;-73
2024/04/05 11:20:32;;;;;;;1.95;0.90;;;23.60;99.20;;;;;;5055431;28;20555;-74
2024/04/05 11:23:02;;;;;;;1.52;0.90;;;23.80;99.90;;;;;;5055099;28;20163;-74
2024/04/05 11:25:28;;;;;;;2.38;0.80;;;23.80;99.90;;;;;;5054202;28;20025;-75
2024/04/05 11:27:54;;;;;;;4.38;0.95;;;23.80;99.00;;;;;;5054147;28;20434;-75
2024/04/05 11:30:20;;;;;;;2.47;0.85;;;23.90;99.70;;;;;;5054238;28;20032;-75
2024/04/05 11:32:45;;;;;;;4.88;1.30;;;24.10;99.00;;;;;;5054186;28;20036;-75
2024/04/05 11:35:12;;;;;;;2.38;1.00;;;24.10;98.40;;;;;;5053122;28;20041;-75
2024/04/05 11:37:43;;;;;;;4.55;1.05;;;24.30;98.90;;;;;;5053665;28;20039;-72
2024/04/05 11:40:10;;;;;;;1.45;0.93;;;24.20;96.00;;;;;;5053242;28;20024;-72
2024/04/05 11:42:39;;;;;;;1.95;0.90;;;24.40;97.30;;;;;;5053504;28;20029;-72
2024/04/05 11:45:06;;;;;;;2.13;1.02;;;24.60;97.50;;;;;;5054587;28;20040;-72
2024/04/05 11:47:33;;;;;;;2.17;1.00;;;24.80;96.00;;;;;;5053687;28;20032;-71
2024/04/05 11:49:58;;;;;;;2.08;0.70;;;24.90;94.20;;;;;;5052083;28;20148;-72
2024/04/05 11:52:24;;;;;;;2.85;0.90;;;24.80;95.50;;;;;;5052855;28;20028;-72
2024/04/05 11:54:50;;;;;;;5.00;0.93;;;25.00;96.10;;;;;;5053302;28;20047;-72
2024/04/05 11:57:16;;;;;;;1.90;0.80;;;25.00;94.80;;;;;;5053571;28;20020;-72
2024/04/05 11:59:43;;;;;;;2.85;1.02;;;25.20;94.00;;;;;;5053110;28;20033;-72
2024/04/05 12:02:09;;;;;;;2.38;0.80;;;25.10;93.60;;;;;;5051800;28;20444;-72
2024/04/05 12:04:34;;;;;;;1.63;0.80;;;25.10;92.80;;;;;;5051982;28;20037;-72
2024/04/05 12:07:00;;;;;;;2.13;0.82;;;25.00;92.00;;;;;;5049940;28;20029;-72
2024/04/05 12:09:25;;;;;;;1.80;0.73;;;24.80;93.50;;;;;;5050729;28;20040;-72
2024/04/05 12:11:52;;;;;;;1.45;0.88;;;24.70;93.40;;;;;;5053377;28;20046;-72
2024/04/05 12:14:18;;;;;;;1.85;0.88;;;24.50;92.50;;;;;;5052196;28;20036;-72
2024/04/05 12:16:44;;;;;;;2.58;0.90;;;24.60;92.60;;;;;;5049266;28;20036;-72
2024/04/05 12:19:10;;;;;;;1.15;0.50;;;24.50;94.90;;;;;;5052280;28;20070;-72
2024/04/05 12:21:36;;;;;;;1.75;0.80;;;24.50;92.50;;;;;;5050359;28;20182;-72
2024/04/05 12:24:01;;;;;;;1.67;0.80;;;24.70;94.40;;;;;;5049624;28;20025;-72
2024/04/05 12:26:27;;;;;;;1.98;0.70;;;25.00;90.00;;;;;;5048862;28;20009;-71
2024/04/05 12:28:54;;;;;;;1.80;0.75;;;25.30;91.10;;;;;;5050119;28;20031;-72
2024/04/05 12:31:20;;;;;;;2.58;0.80;;;25.30;90.10;;;;;;5050704;28;20696;-72
2024/04/05 12:33:45;;;;;;;0.75;0.60;;;25.40;89.60;;;;;;5050271;28;20039;-72
2024/04/05 12:36:13;;;;;;;1.65;0.80;;;25.50;90.20;;;;;;5050695;28;20029;-71
2024/04/05 12:38:44;;;;;;;1.60;0.70;;;25.60;90.60;;;;;;5051423;28;20031;-72
2024/04/05 12:41:09;;;;;;;2.50;0.93;;;25.50;89.00;;;;;;5051934;28;20032;-72
2024/04/05 12:43:35;;;;;;;1.45;0.73;;;25.60;88.60;;;;;;5050816;28;20060;-72